createdAt,value
2019-01-16T00:00:35.565Z,16.27
2019-01-16T00:03:30.099Z,16.00
2019-01-16T00:06:20.825Z,15.67
2019-01-16T00:09:14.641Z,16.80
2019-01-16T00:12:01.204Z,16.60
2019-01-16T00:14:58.095Z,15.93
2019-01-16T00:18:04.675Z,15.97
2019-01-16T00:20:52.804Z,16.73
2019-01-16T00:23:43.280Z,14.27
2019-01-16T00:26:22.420Z,14.80
2019-01-16T00:29:13.005Z,16.07
2019-01-16T00:31:55.132Z,13.37
2019-01-16T00:34:42.124Z,15.77
2019-01-16T00:37:45.985Z,16.87
2019-01-16T00:40:34.211Z,15.20
2019-01-16T00:43:19.805Z,15.07
2019-01-16T00:46:06.699Z,15.83
2019-01-16T00:48:44.927Z,17.00
2019-01-16T00:51:35.455Z,16.83
2019-01-16T00:54:22.154Z,15.53
2019-01-16T00:57:08.609Z,14.73
2019-01-16T00:59:50.350Z,16.30
2019-01-16T01:02:30.877Z,15.13
2019-01-16T01:05:22.295Z,15.63
2019-01-16T01:08:10.458Z,16.23
2019-01-16T01:10:56.845Z,15.70
2019-01-16T01:13:36.822Z,14.03
2019-01-16T01:16:37.015Z,15.63
2019-01-16T01:19:30.750Z,16.23
2019-01-16T01:22:27.973Z,15.70
2019-01-16T01:25:34.464Z,16.50
2019-01-16T01:28:20.791Z,14.67
2019-01-16T01:31:07.757Z,16.63
2019-01-16T01:33:54.348Z,15.83
2019-01-16T01:36:41.560Z,15.40
2019-01-16T01:39:41.419Z,15.87
2019-01-16T01:42:35.439Z,15.10
2019-01-16T01:45:31.083Z,15.27
2019-01-16T01:48:39.984Z,14.63
2019-01-16T01:51:23.276Z,15.93
2019-01-16T01:54:21.390Z,15.60
2019-01-16T01:57:09.528Z,14.93
2019-01-16T01:59:57.651Z,15.00
2019-01-16T02:02:44.557Z,14.63
2019-01-16T02:05:42.022Z,14.90
2019-01-16T02:08:32.851Z,15.23
2019-01-16T02:11:38.968Z,15.67
2019-01-16T02:14:36.017Z,16.20
2019-01-16T02:17:34.861Z,14.57
2019-01-16T02:20:39.887Z,16.10
2019-01-16T02:23:21.261Z,16.67
2019-01-16T02:26:24.143Z,17.07
2019-01-16T02:29:10.568Z,15.77
2019-01-16T02:31:55.186Z,17.53
2019-01-16T02:34:45.733Z,16.47
2019-01-16T02:37:31.478Z,16.80
2019-01-16T02:40:22.528Z,16.87
2019-01-16T02:42:58.759Z,16.90
2019-01-16T02:45:45.504Z,15.93
2019-01-16T02:48:29.484Z,16.77
2019-01-16T02:51:17.562Z,16.70
2019-01-16T02:54:00.938Z,18.30
2019-01-16T02:56:51.812Z,16.90
2019-01-16T02:59:48.604Z,16.63
2019-01-16T03:02:39.611Z,17.50
2019-01-16T03:05:27.607Z,16.87
2019-01-16T03:08:12.961Z,16.37
2019-01-16T03:11:03.783Z,16.73
2019-01-16T03:13:54.950Z,17.00
2019-01-16T03:16:55.412Z,17.03
2019-01-16T03:19:36.612Z,16.40
2019-01-16T03:22:39.997Z,18.03
2019-01-16T03:25:30.626Z,18.00
2019-01-16T03:28:24.375Z,17.87
2019-01-16T03:31:13.363Z,18.27
2019-01-16T03:34:07.248Z,18.60
2019-01-16T03:36:54.244Z,18.40
2019-01-16T03:39:41.050Z,18.53
2019-01-16T03:42:27.498Z,19.07
2019-01-16T03:45:14.739Z,19.67
2019-01-16T03:48:01.571Z,20.50
2019-01-16T03:51:04.737Z,21.03
2019-01-16T03:53:52.914Z,19.07
2019-01-16T03:56:44.067Z,20.47
2019-01-16T03:59:27.336Z,21.03
2019-01-16T04:02:24.569Z,20.60
2019-01-16T04:05:12.619Z,21.57
2019-01-16T04:08:05.680Z,22.13
2019-01-16T04:11:01.202Z,18.83
2019-01-16T04:13:57.981Z,22.10
2019-01-16T04:16:40.098Z,22.00
2019-01-16T04:19:34.494Z,22.70
2019-01-16T04:22:21.654Z,22.20
2019-01-16T04:25:08.273Z,22.13
2019-01-16T04:27:54.801Z,22.43
2019-01-16T04:30:41.238Z,22.83
2019-01-16T04:33:27.642Z,22.57
2019-01-16T04:36:10.640Z,22.20
2019-01-16T04:39:01.492Z,22.93
2019-01-16T04:41:48.085Z,22.97
2019-01-16T04:44:38.626Z,21.20
2019-01-16T04:47:21.812Z,23.70
2019-01-16T04:49:59.053Z,23.03
2019-01-16T04:52:50.216Z,23.37
2019-01-16T04:55:37.162Z,24.13
2019-01-16T04:58:24.332Z,22.63
2019-01-16T05:01:10.881Z,24.73
2019-01-16T05:04:03.194Z,22.73
2019-01-16T05:06:57.746Z,23.13
2019-01-16T05:09:43.925Z,22.67
2019-01-16T05:12:47.175Z,22.50
2019-01-16T05:15:50.521Z,22.30
2019-01-16T05:18:53.810Z,21.77
2019-01-16T05:21:47.772Z,22.70
2019-01-16T05:24:35.079Z,22.47
2019-01-16T05:27:32.188Z,22.57
2019-01-16T05:30:18.557Z,23.20
2019-01-16T05:33:21.499Z,22.63
2019-01-16T05:36:12.733Z,21.83
2019-01-16T05:38:59.392Z,20.60
2019-01-16T05:41:36.020Z,22.73
2019-01-16T05:44:22.682Z,20.07
2019-01-16T05:47:09.234Z,19.33
2019-01-16T05:49:53.668Z,20.13
2019-01-16T05:52:40.595Z,19.40
2019-01-16T05:55:28.038Z,18.87
2019-01-16T05:58:21.979Z,19.10
2019-01-16T06:01:09.959Z,17.73
2019-01-16T06:03:58.223Z,17.23
2019-01-16T06:06:48.986Z,17.77
2019-01-16T06:09:36.959Z,18.53
2019-01-16T06:12:25.237Z,18.67
2019-01-16T06:15:20.768Z,17.90
2019-01-16T06:18:07.604Z,17.40
2019-01-16T06:21:08.549Z,17.07
2019-01-16T06:24:05.859Z,17.90
2019-01-16T06:26:48.872Z,17.33
2019-01-16T06:29:40.051Z,16.27
2019-01-16T06:32:40.427Z,16.60
2019-01-16T06:35:27.440Z,16.00
2019-01-16T06:38:10.899Z,15.93
2019-01-16T06:40:59.092Z,13.97
2019-01-16T06:43:46.221Z,16.07
2019-01-16T06:46:28.961Z,16.60
2019-01-16T06:49:10.562Z,17.83
2019-01-16T06:51:54.014Z,17.10
2019-01-16T06:54:44.694Z,15.90
2019-01-16T06:57:50.804Z,14.83
2019-01-16T07:00:36.465Z,15.37
2019-01-16T07:03:24.952Z,15.90
2019-01-16T07:06:31.172Z,15.57
2019-01-16T07:09:21.807Z,15.20
2019-01-16T07:12:05.002Z,15.37
2019-01-16T07:14:51.653Z,15.47
2019-01-16T07:17:57.987Z,15.37
2019-01-16T07:20:46.262Z,15.70
2019-01-16T07:23:37.704Z,14.67
2019-01-16T07:26:28.989Z,15.63
2019-01-16T07:29:19.744Z,14.43
2019-01-16T07:32:06.848Z,15.33
2019-01-16T07:34:54.766Z,13.83
2019-01-16T07:37:30.747Z,14.90
2019-01-16T07:40:36.999Z,14.70
2019-01-16T07:43:27.987Z,13.63
2019-01-16T07:46:19.429Z,14.00
2019-01-16T07:49:10.050Z,15.03
2019-01-16T07:51:56.655Z,14.60
2019-01-16T07:54:47.530Z,14.00
2019-01-16T07:57:34.642Z,14.53
2019-01-16T08:00:33.877Z,13.63
2019-01-16T08:03:24.703Z,13.40
2019-01-16T08:06:08.274Z,13.73
2019-01-16T08:09:00.800Z,13.10
2019-01-16T08:11:47.782Z,13.67
2019-01-16T08:14:45.646Z,13.57
2019-01-16T08:17:33.505Z,14.10
2019-01-16T08:20:15.411Z,13.80
2019-01-16T08:23:13.575Z,13.60
2019-01-16T08:26:07.913Z,13.80
2019-01-16T08:29:07.867Z,13.90
2019-01-16T08:31:51.569Z,14.17
2019-01-16T08:34:58.212Z,13.63
2019-01-16T08:37:49.178Z,14.03
2019-01-16T08:40:36.121Z,13.33
2019-01-16T08:43:30.555Z,12.30
2019-01-16T08:46:18.602Z,13.77
2019-01-16T08:49:18.910Z,13.30
2019-01-16T08:52:22.519Z,12.57
2019-01-16T08:55:11.307Z,12.60
2019-01-16T08:57:57.966Z,12.37
2019-01-16T09:00:52.113Z,11.83
2019-01-16T09:03:39.154Z,12.43
2019-01-16T09:06:29.770Z,12.47
2019-01-16T09:09:24.024Z,13.00
2019-01-16T09:12:15.207Z,14.20
2019-01-16T09:15:14.902Z,12.27
2019-01-16T09:17:54.095Z,13.23
2019-01-16T09:20:55.210Z,15.50
2019-01-16T09:23:49.305Z,15.10
2019-01-16T09:26:46.400Z,15.23
2019-01-16T09:29:37.312Z,14.97
2019-01-16T09:32:25.756Z,14.80
2019-01-16T09:35:20.327Z,15.00
2019-01-16T09:38:06.858Z,14.33
2019-01-16T09:40:53.184Z,14.57
2019-01-16T09:43:56.369Z,16.00
2019-01-16T09:46:42.940Z,14.23
2019-01-16T09:49:30.172Z,17.10
2019-01-16T09:52:26.859Z,15.97
2019-01-16T09:55:14.046Z,17.17
2019-01-16T09:58:10.931Z,16.60
2019-01-16T10:00:58.964Z,16.53
2019-01-16T10:03:56.276Z,17.73
2019-01-16T10:06:54.005Z,16.73
2019-01-16T10:09:50.898Z,16.93
2019-01-16T10:12:37.754Z,16.57
2019-01-16T10:15:29.590Z,16.57
2019-01-16T10:18:09.424Z,16.07
2019-01-16T10:20:57.515Z,13.03
2019-01-16T10:23:55.283Z,13.87
2019-01-16T10:26:46.483Z,13.17
2019-01-16T10:29:25.729Z,15.17
2019-01-16T10:32:12.375Z,15.33
2019-01-16T10:35:00.733Z,13.23
2019-01-16T10:37:51.954Z,14.50
2019-01-16T10:40:33.994Z,14.33
2019-01-16T10:43:24.849Z,14.67
2019-01-16T10:46:11.505Z,14.50
2019-01-16T10:48:57.828Z,12.77
2019-01-16T10:51:44.281Z,14.30
2019-01-16T10:54:41.034Z,13.83
2019-01-16T10:57:42.638Z,14.83
2019-01-16T11:00:30.495Z,13.43
2019-01-16T11:03:11.240Z,16.13
2019-01-16T11:05:59.309Z,14.93
2019-01-16T11:08:48.266Z,15.60
2019-01-16T11:11:43.160Z,14.13
2019-01-16T11:14:29.802Z,15.43
2019-01-16T11:17:16.541Z,17.33
2019-01-16T11:20:03.618Z,17.37
2019-01-16T11:23:00.648Z,14.73
2019-01-16T11:25:54.713Z,15.90
2019-01-16T11:28:45.388Z,15.70
2019-01-16T11:31:48.861Z,14.00
2019-01-16T11:34:44.963Z,14.17
2019-01-16T11:37:35.684Z,11.87
2019-01-16T11:40:27.282Z,13.00
2019-01-16T11:43:16.193Z,13.33
2019-01-16T11:46:03.868Z,12.50
2019-01-16T11:49:10.304Z,13.13
2019-01-16T11:52:04.406Z,12.07
2019-01-16T11:54:48.105Z,11.80
2019-01-16T11:57:44.836Z,10.70
2019-01-16T12:00:26.052Z,10.37
2019-01-16T12:03:05.339Z,10.33
2019-01-16T12:05:52.408Z,8.83
2019-01-16T12:08:39.368Z,9.00
2019-01-16T12:11:27.046Z,8.40
2019-01-16T12:14:16.830Z,8.47
2019-01-16T12:17:04.530Z,8.70
2019-01-16T12:19:51.556Z,8.30
2019-01-16T12:22:33.818Z,7.47
2019-01-16T12:25:29.343Z,7.20
2019-01-16T12:28:23.370Z,7.43
2019-01-16T12:31:20.325Z,8.07
2019-01-16T12:34:08.246Z,7.83
2019-01-16T12:37:14.486Z,7.10
2019-01-16T12:40:01.487Z,7.87
2019-01-16T12:42:49.636Z,7.97
2019-01-16T12:45:39.397Z,7.10
2019-01-16T12:48:22.303Z,6.17
2019-01-16T12:51:33.637Z,7.07
2019-01-16T12:54:10.882Z,6.77
2019-01-16T12:57:07.275Z,7.57
2019-01-16T12:59:55.341Z,6.67
2019-01-16T13:02:43.411Z,7.43
2019-01-16T13:05:28.238Z,6.30
2019-01-16T13:08:34.434Z,6.53
2019-01-16T13:11:25.535Z,7.20
2019-01-16T13:14:16.131Z,6.03
2019-01-16T13:16:58.836Z,6.23
2019-01-16T13:20:05.411Z,6.10
2019-01-16T13:22:56.037Z,6.60
2019-01-16T13:25:53.435Z,6.10
2019-01-16T13:28:47.053Z,6.40
2019-01-16T13:31:43.886Z,6.33
2019-01-16T13:34:42.974Z,6.47
2019-01-16T13:37:19.443Z,7.20
2019-01-16T13:40:19.514Z,6.20
2019-01-16T13:42:58.775Z,6.57
2019-01-16T13:45:49.714Z,5.77
2019-01-16T13:48:32.574Z,6.17
2019-01-16T13:51:32.340Z,6.30
2019-01-16T13:54:29.029Z,6.70
2019-01-16T13:57:17.900Z,6.33
2019-01-16T14:00:06.587Z,6.43
2019-01-16T14:02:50.716Z,6.10
2019-01-16T14:05:39.155Z,5.67
2019-01-16T14:08:33.695Z,6.10
2019-01-16T14:11:20.504Z,6.27
2019-01-16T14:14:27.720Z,6.17
2019-01-16T14:17:24.913Z,6.50
2019-01-16T14:20:12.942Z,5.87
2019-01-16T14:22:59.648Z,6.00
2019-01-16T14:25:47.742Z,6.53
2019-01-16T14:28:34.457Z,5.80
2019-01-16T14:31:16.675Z,6.17
2019-01-16T14:34:03.764Z,6.00
2019-01-16T14:37:06.658Z,6.17
2019-01-16T14:40:10.528Z,6.67
2019-01-16T14:42:57.055Z,6.73
2019-01-16T14:45:45.433Z,7.40
2019-01-16T14:48:33.566Z,7.20
2019-01-16T14:51:27.093Z,6.83
2019-01-16T14:54:31.057Z,7.23
2019-01-16T14:57:16.042Z,8.00
2019-01-16T15:00:03.322Z,7.83
2019-01-16T15:02:53.219Z,7.20
2019-01-16T15:05:47.155Z,7.50
2019-01-16T15:08:30.073Z,8.10
2019-01-16T15:11:28.701Z,8.43
2019-01-16T15:14:16.894Z,8.83
2019-01-16T15:17:10.824Z,9.60
2019-01-16T15:19:58.019Z,9.80
2019-01-16T15:22:51.624Z,9.00
2019-01-16T15:25:37.890Z,11.27
2019-01-16T15:28:29.200Z,10.23
2019-01-16T15:31:19.919Z,11.00
2019-01-16T15:34:07.583Z,11.27
2019-01-16T15:37:01.489Z,11.17
2019-01-16T15:39:56.551Z,13.00
2019-01-16T15:42:38.301Z,12.13
2019-01-16T15:45:40.604Z,12.10
2019-01-16T15:48:39.227Z,12.30
2019-01-16T15:51:25.622Z,11.47
2019-01-16T15:54:12.519Z,11.43
2019-01-16T15:57:03.471Z,12.30
2019-01-16T15:59:40.192Z,12.83
2019-01-16T16:02:26.980Z,11.07
2019-01-16T16:05:23.624Z,11.67
2019-01-16T16:08:11.643Z,10.77
2019-01-16T16:11:03.968Z,11.60
2019-01-16T16:13:44.493Z,12.10
2019-01-16T16:16:34.003Z,10.83
2019-01-16T16:19:34.226Z,11.87
2019-01-16T16:22:34.523Z,11.27
2019-01-16T16:25:34.938Z,10.83
2019-01-16T16:28:23.276Z,12.30
2019-01-16T16:30:59.273Z,11.67
2019-01-16T16:33:53.163Z,12.17
2019-01-16T16:36:41.365Z,13.13
2019-01-16T16:39:28.273Z,11.53
2019-01-16T16:42:03.580Z,12.10
2019-01-16T16:44:57.176Z,12.97
2019-01-16T16:47:45.245Z,11.17
2019-01-16T16:50:36.099Z,12.73
2019-01-16T16:53:33.728Z,11.27
2019-01-16T16:56:20.756Z,13.27
2019-01-16T16:59:26.821Z,13.50
2019-01-16T17:02:26.648Z,12.57
2019-01-16T17:05:08.523Z,12.93
2019-01-16T17:08:11.604Z,12.77
2019-01-16T17:10:58.038Z,11.43
2019-01-16T17:13:49.014Z,11.50
2019-01-16T17:16:35.618Z,11.40
2019-01-16T17:19:26.857Z,10.33
2019-01-16T17:22:14.096Z,11.63
2019-01-16T17:25:11.228Z,11.87
2019-01-16T17:28:02.001Z,11.73
2019-01-16T17:30:49.306Z,11.07
2019-01-16T17:33:44.290Z,11.13
2019-01-16T17:36:31.306Z,12.30
2019-01-16T17:39:31.577Z,10.13
2019-01-16T17:42:08.451Z,11.60
2019-01-16T17:45:02.526Z,10.70
2019-01-16T17:47:49.717Z,10.53
2019-01-16T17:50:40.863Z,11.00
2019-01-16T17:53:20.565Z,11.03
2019-01-16T17:56:08.962Z,11.50
2019-01-16T17:59:02.954Z,10.07
2019-01-16T18:01:59.680Z,11.33
2019-01-16T18:04:55.157Z,10.43
2019-01-16T18:07:43.195Z,13.40
2019-01-16T18:10:36.974Z,11.73
2019-01-16T18:13:28.090Z,12.17
2019-01-16T18:16:16.693Z,12.87
2019-01-16T18:19:02.289Z,11.13
2019-01-16T18:21:50.216Z,12.47
2019-01-16T18:24:37.675Z,14.13
2019-01-16T18:27:28.830Z,13.50
2019-01-16T18:30:22.590Z,13.47
2019-01-16T18:33:13.525Z,13.23
2019-01-16T18:36:00.011Z,13.67
2019-01-16T18:38:48.093Z,13.23
2019-01-16T18:41:26.980Z,13.50
2019-01-16T18:44:04.232Z,14.63
2019-01-16T18:46:58.309Z,12.83
2019-01-16T18:49:46.468Z,12.77
2019-01-16T18:52:29.753Z,13.23
2019-01-16T18:55:27.293Z,28.57
2019-01-16T18:58:16.103Z,14.50
2019-01-16T19:01:10.145Z,13.47
2019-01-16T19:03:53.152Z,14.10
2019-01-16T19:06:52.923Z,13.27
2019-01-16T19:09:45.519Z,13.53
2019-01-16T19:12:32.460Z,12.97
2019-01-16T19:15:16.791Z,13.03
2019-01-16T19:18:13.742Z,12.67
2019-01-16T19:20:58.162Z,13.00
2019-01-16T19:23:46.274Z,13.67
2019-01-16T19:26:32.712Z,14.47
2019-01-16T19:29:21.141Z,12.87
2019-01-16T19:32:09.438Z,12.63
2019-01-16T19:35:05.206Z,12.87
2019-01-16T19:38:11.640Z,13.00
2019-01-16T19:41:11.584Z,12.60
2019-01-16T19:44:14.624Z,11.33
2019-01-16T19:47:02.818Z,11.80
2019-01-16T19:49:45.283Z,12.50
2019-01-16T19:52:22.881Z,13.43
2019-01-16T19:55:16.893Z,12.80
2019-01-16T19:57:59.029Z,12.67
2019-01-16T20:00:55.167Z,11.43
2019-01-16T20:03:38.872Z,12.13
2019-01-16T20:06:36.450Z,12.60
2019-01-16T20:09:30.380Z,12.03
2019-01-16T20:12:17.318Z,13.93
2019-01-16T20:14:55.516Z,10.50
2019-01-16T20:17:42.633Z,14.57
2019-01-16T20:20:27.776Z,14.80
2019-01-16T20:23:11.795Z,13.67
2019-01-16T20:25:59.990Z,14.53
2019-01-16T20:28:44.135Z,14.30
2019-01-16T20:31:31.099Z,12.00
2019-01-16T20:34:19.580Z,13.93
2019-01-16T20:37:13.301Z,13.70
2019-01-16T20:40:01.481Z,14.90
2019-01-16T20:42:58.793Z,13.80
2019-01-16T20:45:56.803Z,13.27
2019-01-16T20:48:37.191Z,14.13
2019-01-16T20:51:24.138Z,14.70
2019-01-16T20:54:21.252Z,12.10
2019-01-16T20:56:59.735Z,13.50
2019-01-16T20:59:50.612Z,13.03
2019-01-16T21:02:41.880Z,12.77
2019-01-16T21:05:48.203Z,13.00
2019-01-16T21:08:31.877Z,12.00
2019-01-16T21:11:19.840Z,12.70
2019-01-16T21:14:04.682Z,12.00
2019-01-16T21:17:04.344Z,12.30
2019-01-16T21:19:55.287Z,11.77
2019-01-16T21:22:42.454Z,11.87
2019-01-16T21:25:36.861Z,11.40
2019-01-16T21:28:25.104Z,10.80
2019-01-16T21:31:06.389Z,10.87
2019-01-16T21:33:52.812Z,11.70
2019-01-16T21:36:43.835Z,10.53
2019-01-16T21:39:26.163Z,10.53
2019-01-16T21:42:14.354Z,10.67
2019-01-16T21:45:10.941Z,11.57
2019-01-16T21:48:01.920Z,10.70
2019-01-16T21:50:48.501Z,10.70
2019-01-16T21:53:31.771Z,10.23
2019-01-16T21:56:10.776Z,9.80
2019-01-16T21:58:58.844Z,10.37
2019-01-16T22:02:01.791Z,11.07
2019-01-16T22:04:53.107Z,10.27
2019-01-16T22:07:50.073Z,10.40
2019-01-16T22:10:38.743Z,11.10
2019-01-16T22:13:17.243Z,9.60
2019-01-16T22:16:03.796Z,10.03
2019-01-16T22:18:51.831Z,10.13
2019-01-16T22:21:47.796Z,10.03
2019-01-16T22:24:34.651Z,9.60
2019-01-16T22:27:32.852Z,9.13
2019-01-16T22:30:16.001Z,10.97
2019-01-16T22:33:04.013Z,10.53
2019-01-16T22:35:50.527Z,9.43
2019-01-16T22:38:47.440Z,11.37
2019-01-16T22:41:27.941Z,9.97
2019-01-16T22:44:21.825Z,10.33
2019-01-16T22:47:09.291Z,11.17
2019-01-16T22:49:51.009Z,10.37
2019-01-16T22:52:32.589Z,10.63
2019-01-16T22:55:19.653Z,10.83
2019-01-16T22:58:04.445Z,12.57
2019-01-16T23:01:01.332Z,11.00
2019-01-16T23:03:53.493Z,11.63
2019-01-16T23:06:57.178Z,12.17
2019-01-16T23:09:43.687Z,10.57
2019-01-16T23:12:30.205Z,12.53
2019-01-16T23:15:38.197Z,13.23
2019-01-16T23:18:25.131Z,11.07
2019-01-16T23:21:13.176Z,12.70
2019-01-16T23:24:04.837Z,12.90
2019-01-16T23:27:04.945Z,14.07
2019-01-16T23:29:51.439Z,12.77
2019-01-16T23:32:54.411Z,12.37
2019-01-16T23:35:48.415Z,15.33
2019-01-16T23:38:36.334Z,14.93
2019-01-16T23:41:23.455Z,14.20
2019-01-16T23:44:21.626Z,14.10
2019-01-16T23:47:07.989Z,13.90
2019-01-16T23:50:01.842Z,14.93
2019-01-16T23:52:52.634Z,14.43
2019-01-16T23:55:49.753Z,14.03
2019-01-16T23:58:49.951Z,14.53
